createdAt,value
2023-05-16T00:02:16.591Z,100456.91
2023-05-16T00:04:46.065Z,100454.25
2023-05-16T00:07:14.351Z,100452.41
2023-05-16T00:09:41.929Z,100454.22
2023-05-16T00:12:09.659Z,100456.72
2023-05-16T00:14:37.822Z,100448.69
2023-05-16T00:17:11.539Z,100461.06
2023-05-16T00:19:40.197Z,100459.19
2023-05-16T00:22:09.094Z,100456.09
2023-05-16T00:24:36.577Z,100450.13
2023-05-16T00:27:04.614Z,100461.03
2023-05-16T00:29:32.230Z,100448.84
2023-05-16T00:31:59.728Z,100449.97
2023-05-16T00:34:27.344Z,100454.72
2023-05-16T00:36:55.138Z,100453.31
2023-05-16T00:39:24.137Z,100458.78
2023-05-16T00:41:51.961Z,100453.88
2023-05-16T00:44:19.427Z,100454.09
2023-05-16T00:46:47.315Z,100453.28
2023-05-16T00:49:14.887Z,100457.69
2023-05-16T00:51:42.685Z,100462.38
2023-05-16T00:54:10.270Z,100461.75
2023-05-16T00:56:39.624Z,100468.97
2023-05-16T00:59:07.140Z,100466.84
2023-05-16T01:01:34.879Z,100466.38
2023-05-16T01:04:02.441Z,100462.19
2023-05-16T01:06:30.140Z,100467.13
2023-05-16T01:08:57.650Z,100474.75
2023-05-16T01:11:29.578Z,100473.50
2023-05-16T01:14:04.055Z,100471.09
2023-05-16T01:16:35.380Z,100466.94
2023-05-16T01:19:09.265Z,100472.41
2023-05-16T01:21:44.914Z,100467.19
2023-05-16T01:24:16.599Z,100469.66
2023-05-16T01:26:45.896Z,100473.28
2023-05-16T01:29:13.595Z,100477.94
2023-05-16T01:31:41.182Z,100480.25
2023-05-16T01:34:08.883Z,100475.00
2023-05-16T01:36:40.864Z,100480.16
2023-05-16T01:39:13.941Z,100487.72
2023-05-16T01:41:49.331Z,100486.94
2023-05-16T01:44:22.849Z,100478.91
2023-05-16T01:46:54.260Z,100474.69
2023-05-16T01:49:26.529Z,100479.16
2023-05-16T01:51:57.127Z,100473.88
2023-05-16T01:54:26.326Z,100465.69
2023-05-16T01:56:56.139Z,100469.00
2023-05-16T01:59:25.456Z,100472.31
2023-05-16T02:01:54.420Z,100473.16
2023-05-16T02:04:22.430Z,100474.00
2023-05-16T02:06:50.352Z,100473.13
2023-05-16T02:09:17.912Z,100469.81
2023-05-16T02:11:46.736Z,100471.44
2023-05-16T02:14:15.922Z,100480.47
2023-05-16T02:16:43.437Z,100474.34
2023-05-16T02:19:10.963Z,100470.63
2023-05-16T02:21:38.485Z,100478.41
2023-05-16T02:24:06.384Z,100476.81
2023-05-16T02:26:34.055Z,100478.59
2023-05-16T02:29:01.586Z,100487.44
2023-05-16T02:31:31.736Z,100481.28
2023-05-16T02:34:00.224Z,100483.13
2023-05-16T02:36:27.744Z,100482.16
2023-05-16T02:38:55.244Z,100484.81
2023-05-16T02:41:23.170Z,100489.97
2023-05-16T02:43:50.773Z,100494.41
2023-05-16T02:46:22.706Z,100497.84
2023-05-16T02:48:52.043Z,100493.53
2023-05-16T02:51:20.782Z,100505.41
2023-05-16T02:53:48.364Z,100505.47
2023-05-16T02:56:15.851Z,100502.16
2023-05-16T02:58:43.655Z,100507.88
2023-05-16T03:01:11.218Z,100509.50
2023-05-16T03:03:38.768Z,100503.81
2023-05-16T03:06:07.925Z,100499.69
2023-05-16T03:08:36.019Z,100497.72
2023-05-16T03:11:03.516Z,100495.53
2023-05-16T03:13:31.037Z,100503.72
2023-05-16T03:15:58.582Z,100492.56
2023-05-16T03:18:26.248Z,100497.13
2023-05-16T03:20:54.012Z,100502.47
2023-05-16T03:23:23.346Z,100506.38
2023-05-16T03:25:50.923Z,100502.94
2023-05-16T03:28:18.813Z,100507.03
2023-05-16T03:30:46.587Z,100504.38
2023-05-16T03:33:14.190Z,100512.75
2023-05-16T03:35:42.087Z,100512.06
2023-05-16T03:38:10.037Z,100517.38
2023-05-16T03:40:38.929Z,100516.16
2023-05-16T03:43:06.500Z,100517.00
2023-05-16T03:45:34.097Z,100522.25
2023-05-16T03:48:01.757Z,100524.09
2023-05-16T03:50:29.391Z,100520.22
2023-05-16T03:52:56.921Z,100521.22
2023-05-16T03:55:24.649Z,100523.13
2023-05-16T03:57:53.461Z,100521.81
2023-05-16T04:00:20.934Z,100526.38
2023-05-16T04:02:48.537Z,100533.19
2023-05-16T04:05:16.414Z,100534.19
2023-05-16T04:07:43.922Z,100533.56
2023-05-16T04:10:12.373Z,100545.13
2023-05-16T04:12:39.896Z,100551.47
2023-05-16T04:15:09.695Z,100548.25
2023-05-16T04:17:37.312Z,100535.16
2023-05-16T04:20:05.359Z,100542.19
2023-05-16T04:22:32.859Z,100558.91
2023-05-16T04:25:00.551Z,100556.50
2023-05-16T04:27:28.024Z,100552.38
2023-05-16T04:29:56.171Z,100542.44
2023-05-16T04:32:24.997Z,100544.72
2023-05-16T04:34:53.233Z,100543.44
2023-05-16T04:37:20.757Z,100545.78
2023-05-16T04:39:48.195Z,100556.09
2023-05-16T04:42:16.341Z,100550.91
2023-05-16T04:44:44.008Z,100554.63
2023-05-16T04:47:11.606Z,100552.34
2023-05-16T04:49:40.550Z,100544.31
2023-05-16T04:52:09.793Z,100548.50
2023-05-16T04:54:37.244Z,100550.31
2023-05-16T04:57:04.905Z,100552.56
2023-05-16T04:59:32.424Z,100562.50
2023-05-16T05:01:59.939Z,100565.81
2023-05-16T05:04:27.489Z,100574.41
2023-05-16T05:06:56.633Z,100574.63
2023-05-16T05:09:24.454Z,100577.06
2023-05-16T05:11:52.313Z,100578.53
2023-05-16T05:14:19.809Z,100580.66
2023-05-16T05:16:47.325Z,100580.03
2023-05-16T05:19:14.826Z,100583.91
2023-05-16T05:21:42.411Z,100579.03
2023-05-16T05:24:11.386Z,100581.09
2023-05-16T05:26:38.934Z,100586.78
2023-05-16T05:29:06.570Z,100583.38
2023-05-16T05:31:34.802Z,100582.00
2023-05-16T05:34:02.534Z,100589.34
2023-05-16T05:36:30.875Z,100592.72
2023-05-16T05:38:58.665Z,100592.72
2023-05-16T05:41:27.696Z,100596.91
2023-05-16T05:43:55.187Z,100598.13
2023-05-16T05:46:22.792Z,100604.28
2023-05-16T05:48:50.534Z,100604.94
2023-05-16T05:51:18.048Z,100606.38
2023-05-16T05:53:45.736Z,100616.84
2023-05-16T05:56:13.214Z,100617.47
2023-05-16T05:58:42.423Z,100617.66
2023-05-16T06:01:11.549Z,100627.94
2023-05-16T06:03:39.083Z,100628.94
2023-05-16T06:06:07.136Z,100633.44
2023-05-16T06:08:34.578Z,100641.00
2023-05-16T06:11:02.544Z,100646.09
2023-05-16T06:13:30.042Z,100642.78
2023-05-16T06:15:58.862Z,100650.38
2023-05-16T06:18:26.400Z,100647.72
2023-05-16T06:20:54.021Z,100647.66
2023-05-16T06:23:22.001Z,100645.22
2023-05-16T06:25:49.940Z,100661.69
2023-05-16T06:28:17.491Z,100657.97
2023-05-16T06:30:45.014Z,100658.59
2023-05-16T06:33:15.505Z,100674.44
2023-05-16T06:35:43.126Z,100673.63
2023-05-16T06:38:10.685Z,100682.50
2023-05-16T06:40:38.362Z,100684.09
2023-05-16T06:43:06.033Z,100690.59
2023-05-16T06:45:33.585Z,100687.50
2023-05-16T06:48:01.380Z,100690.41
2023-05-16T06:50:30.359Z,100691.19
2023-05-16T06:52:57.907Z,100692.44
2023-05-16T06:55:25.559Z,100697.31
2023-05-16T06:57:53.201Z,100693.13
2023-05-16T07:00:21.820Z,100696.56
2023-05-16T07:02:49.626Z,100701.25
2023-05-16T07:05:17.279Z,100707.00
2023-05-16T07:07:46.647Z,100713.78
2023-05-16T07:10:14.126Z,100707.75
2023-05-16T07:12:43.024Z,100726.66
2023-05-16T07:15:11.503Z,100727.88
2023-05-16T07:17:39.087Z,100732.19
2023-05-16T07:20:08.204Z,100738.16
2023-05-16T07:22:36.223Z,100744.28
2023-05-16T07:25:05.786Z,100736.66
2023-05-16T07:27:33.297Z,100750.44
2023-05-16T07:30:01.062Z,100749.16
2023-05-16T07:32:28.649Z,100755.44
2023-05-16T07:34:56.167Z,100756.84
2023-05-16T07:37:23.673Z,100763.84
2023-05-16T07:39:51.191Z,100764.22
2023-05-16T07:42:20.074Z,100769.97
2023-05-16T07:44:47.655Z,100768.44
2023-05-16T07:47:15.688Z,100784.69
2023-05-16T07:49:43.459Z,100781.41
2023-05-16T07:52:11.144Z,100790.41
2023-05-16T07:54:39.054Z,100790.72
2023-05-16T07:57:07.173Z,100806.56
2023-05-16T07:59:36.094Z,100807.41
2023-05-16T08:02:03.820Z,100809.59
2023-05-16T08:04:31.331Z,100807.94
2023-05-16T08:06:58.826Z,100817.72
2023-05-16T08:09:26.358Z,100823.50
2023-05-16T08:11:53.946Z,100831.97
2023-05-16T08:14:21.519Z,100826.53
2023-05-16T08:16:50.549Z,100833.44
2023-05-16T08:19:18.092Z,100838.03
2023-05-16T08:21:45.823Z,100840.16
2023-05-16T08:24:13.354Z,100842.44
2023-05-16T08:26:40.889Z,100845.66
2023-05-16T08:29:08.400Z,100843.38
2023-05-16T08:31:36.001Z,100843.47
2023-05-16T08:34:06.404Z,100848.81
2023-05-16T08:36:35.537Z,100849.53
2023-05-16T08:39:03.217Z,100856.50
2023-05-16T08:41:30.853Z,100860.56
2023-05-16T08:43:58.435Z,100857.06
2023-05-16T08:46:26.928Z,100857.72
2023-05-16T08:48:55.026Z,100855.25
2023-05-16T08:51:26.579Z,100858.72
2023-05-16T08:53:57.154Z,100852.28
2023-05-16T08:56:25.788Z,100854.31
2023-05-16T08:58:57.260Z,100859.28
2023-05-16T09:01:25.059Z,100862.03
2023-05-16T09:03:53.307Z,100858.16
2023-05-16T09:06:20.948Z,100857.25
2023-05-16T09:08:50.148Z,100862.56
2023-05-16T09:11:17.674Z,100863.53
2023-05-16T09:13:45.525Z,100864.91
2023-05-16T09:16:13.972Z,100870.94
2023-05-16T09:18:42.402Z,100867.78
2023-05-16T09:21:11.181Z,100860.53
2023-05-16T09:23:38.755Z,100853.72
2023-05-16T09:26:08.352Z,100853.16
2023-05-16T09:28:38.525Z,100855.44
2023-05-16T09:31:07.194Z,100853.84
2023-05-16T09:33:34.864Z,100860.78
2023-05-16T09:36:03.792Z,100869.50
2023-05-16T09:38:31.385Z,100861.38
2023-05-16T09:40:58.936Z,100856.94
2023-05-16T09:43:28.029Z,100861.91
2023-05-16T09:45:56.129Z,100845.94
2023-05-16T09:48:23.778Z,100857.59
2023-05-16T09:50:53.330Z,100868.28
2023-05-16T09:53:28.409Z,100866.69
2023-05-16T09:56:03.387Z,100862.03
2023-05-16T09:58:33.581Z,100865.25
2023-05-16T10:01:01.663Z,100866.09
2023-05-16T10:03:29.689Z,100860.25
2023-05-16T10:05:57.414Z,100865.22
2023-05-16T10:08:26.694Z,100872.34
2023-05-16T10:10:56.467Z,100866.41
2023-05-16T10:13:25.800Z,100875.16
2023-05-16T10:15:57.100Z,100869.34
2023-05-16T10:18:30.799Z,100879.50
2023-05-16T10:21:09.643Z,100877.13
2023-05-16T10:23:40.552Z,100882.44
2023-05-16T10:26:08.673Z,100873.41
2023-05-16T10:28:37.125Z,100873.22
2023-05-16T10:31:06.780Z,100876.88
2023-05-16T10:33:34.558Z,100876.50
2023-05-16T10:36:03.637Z,100877.03
2023-05-16T10:38:31.463Z,100883.63
2023-05-16T10:40:59.150Z,100887.09
2023-05-16T10:43:27.918Z,100873.09
2023-05-16T10:45:56.901Z,100873.63
2023-05-16T10:48:32.962Z,100877.00
2023-05-16T10:51:00.734Z,100866.88
2023-05-16T10:53:32.230Z,100869.44
2023-05-16T10:56:10.386Z,100866.97
2023-05-16T10:58:45.715Z,100875.59
2023-05-16T11:01:17.995Z,100884.41
2023-05-16T11:04:12.034Z,100885.88
2023-05-16T11:06:47.669Z,100881.34
2023-05-16T11:09:23.556Z,100879.03
2023-05-16T11:12:00.022Z,100886.84
2023-05-16T11:14:30.397Z,100888.78
2023-05-16T11:17:02.636Z,100889.75
2023-05-16T11:19:36.370Z,100893.66
2023-05-16T11:22:11.706Z,100893.09
2023-05-16T11:24:40.713Z,100887.53
2023-05-16T11:27:08.336Z,100895.75
2023-05-16T11:29:37.446Z,100888.19
2023-05-16T11:32:06.044Z,100892.00
2023-05-16T11:34:38.662Z,100888.28
2023-05-16T11:37:06.722Z,100881.97
2023-05-16T11:39:34.540Z,100883.06
2023-05-16T11:42:02.430Z,100883.56
2023-05-16T11:44:29.952Z,100870.78
2023-05-16T11:46:57.553Z,100879.13
2023-05-16T11:49:26.926Z,100878.72
2023-05-16T11:51:57.494Z,100877.94
2023-05-16T11:54:25.217Z,100886.59
2023-05-16T11:56:52.849Z,100882.69
2023-05-16T11:59:20.858Z,100878.97
2023-05-16T12:01:50.428Z,100887.78
2023-05-16T12:04:20.295Z,100876.00
2023-05-16T12:07:01.156Z,100878.75
2023-05-16T12:09:28.773Z,100869.13
2023-05-16T12:11:56.362Z,100867.72
2023-05-16T12:14:24.057Z,100863.84
2023-05-16T12:16:53.132Z,100867.56
2023-05-16T12:19:21.637Z,100859.75
2023-05-16T12:21:49.388Z,100855.00
2023-05-16T12:24:18.572Z,100856.50
2023-05-16T12:26:46.359Z,100856.69
2023-05-16T12:29:14.381Z,100865.75
2023-05-16T12:31:42.302Z,100872.16
2023-05-16T12:34:17.687Z,100855.66
2023-05-16T12:36:45.436Z,100854.41
2023-05-16T12:39:14.386Z,100857.94
2023-05-16T12:41:44.062Z,100848.81
2023-05-16T12:44:17.348Z,100863.69
2023-05-16T12:46:46.636Z,100869.69
2023-05-16T12:49:14.645Z,100870.28
2023-05-16T12:51:42.520Z,100868.03
2023-05-16T12:54:11.635Z,100883.28
2023-05-16T12:56:40.028Z,100875.69
2023-05-16T12:59:09.077Z,100877.34
2023-05-16T13:01:37.336Z,100874.84
2023-05-16T13:04:05.805Z,100870.09
2023-05-16T13:06:48.840Z,100868.63
2023-05-16T13:09:22.404Z,100869.03
2023-05-16T13:11:50.499Z,100872.13
2023-05-16T13:14:19.390Z,100874.41
2023-05-16T13:16:47.006Z,100873.16
2023-05-16T13:19:14.891Z,100880.56
2023-05-16T13:21:42.495Z,100876.41
2023-05-16T13:24:14.999Z,100865.38
2023-05-16T13:26:42.510Z,100872.63
2023-05-16T13:29:11.700Z,100866.97
2023-05-16T13:31:40.663Z,100866.78
2023-05-16T13:34:08.300Z,100878.72
2023-05-16T13:36:52.288Z,100882.41
2023-05-16T13:39:22.251Z,100882.88
2023-05-16T13:41:50.196Z,100887.84
2023-05-16T13:44:18.096Z,100880.44
2023-05-16T13:46:46.976Z,100874.00
2023-05-16T13:49:14.546Z,100880.75
2023-05-16T13:51:42.128Z,100880.13
2023-05-16T13:54:09.805Z,100873.06
2023-05-16T13:56:37.319Z,100874.06
2023-05-16T13:59:07.183Z,100888.88
2023-05-16T14:01:36.364Z,100890.13
2023-05-16T14:04:05.769Z,100892.72
2023-05-16T14:06:33.384Z,100891.16
2023-05-16T14:09:01.077Z,100900.75
2023-05-16T14:11:29.571Z,100900.56
2023-05-16T14:13:57.384Z,100891.28
2023-05-16T14:16:25.001Z,100901.63
2023-05-16T14:18:52.736Z,100891.91
2023-05-16T14:21:21.599Z,100890.19
2023-05-16T14:23:49.196Z,100884.94
2023-05-16T14:26:18.338Z,100895.63
2023-05-16T14:28:45.908Z,100896.41
2023-05-16T14:31:13.385Z,100895.22
2023-05-16T14:33:43.062Z,100887.81
2023-05-16T14:36:10.805Z,100891.59
2023-05-16T14:38:40.004Z,100892.47
2023-05-16T14:41:07.547Z,100899.13
2023-05-16T14:43:35.252Z,100904.72
2023-05-16T14:46:03.005Z,100906.16
2023-05-16T14:48:31.226Z,100897.09
2023-05-16T14:50:58.751Z,100900.22
2023-05-16T14:53:26.600Z,100898.06
2023-05-16T14:55:56.952Z,100910.63
2023-05-16T14:58:27.112Z,100908.78
2023-05-16T15:00:54.757Z,100912.75
2023-05-16T15:03:25.133Z,100929.09
2023-05-16T15:05:54.732Z,100919.84
2023-05-16T15:08:22.338Z,100927.69
2023-05-16T15:10:51.475Z,100931.19
2023-05-16T15:13:20.469Z,100928.31
2023-05-16T15:15:54.493Z,100926.44
2023-05-16T15:18:24.068Z,100913.38
2023-05-16T15:20:57.338Z,100918.69
2023-05-16T15:23:25.026Z,100927.53
2023-05-16T15:26:01.167Z,100923.09
2023-05-16T15:28:30.153Z,100924.75
2023-05-16T15:30:57.673Z,100924.53
2023-05-16T15:33:25.541Z,100920.63
2023-05-16T15:35:53.094Z,100913.81
2023-05-16T15:38:20.896Z,100916.28
2023-05-16T15:40:52.659Z,100915.44
2023-05-16T15:43:22.704Z,100912.72
2023-05-16T15:45:51.601Z,100920.13
2023-05-16T15:48:19.460Z,100922.41
2023-05-16T15:50:47.033Z,100922.25
2023-05-16T15:53:14.553Z,100920.81
2023-05-16T15:55:42.565Z,100915.25
2023-05-16T15:58:10.088Z,100917.91
2023-05-16T16:00:37.586Z,100919.13
2023-05-16T16:03:06.586Z,100919.56
2023-05-16T16:05:34.269Z,100911.28
2023-05-16T16:08:01.792Z,100907.81
2023-05-16T16:10:29.319Z,100918.56
2023-05-16T16:13:00.103Z,100911.94
2023-05-16T16:15:28.936Z,100913.38
2023-05-16T16:17:59.045Z,100900.41
2023-05-16T16:20:28.344Z,100902.06
2023-05-16T16:22:55.863Z,100906.19
2023-05-16T16:25:23.409Z,100898.34
2023-05-16T16:27:51.507Z,100899.78
2023-05-16T16:30:19.057Z,100904.28
2023-05-16T16:32:48.523Z,100906.97
2023-05-16T16:35:16.405Z,100899.34
2023-05-16T16:38:01.988Z,100907.59
2023-05-16T16:40:33.670Z,100906.19
2023-05-16T16:43:01.268Z,100907.44
2023-05-16T16:45:29.281Z,100909.53
2023-05-16T16:47:57.981Z,100901.03
2023-05-16T16:50:25.736Z,100907.25
2023-05-16T16:52:54.803Z,100905.16
2023-05-16T16:55:22.888Z,100905.31
2023-05-16T16:57:50.444Z,100903.59
2023-05-16T17:00:18.488Z,100905.16
2023-05-16T17:02:46.093Z,100909.00
2023-05-16T17:05:13.799Z,100903.63
2023-05-16T17:07:41.328Z,100903.50
2023-05-16T17:10:11.208Z,100904.38
2023-05-16T17:12:44.403Z,100900.97
2023-05-16T17:15:12.595Z,100902.66
2023-05-16T17:17:40.104Z,100903.00
2023-05-16T17:20:09.028Z,100920.94
2023-05-16T17:22:36.804Z,100916.97
2023-05-16T17:25:04.755Z,100914.09
2023-05-16T17:27:33.712Z,100923.69
2023-05-16T17:30:01.405Z,100931.03
2023-05-16T17:32:29.214Z,100922.84
2023-05-16T17:34:56.911Z,100932.97
2023-05-16T17:37:24.440Z,100939.03
2023-05-16T17:39:52.275Z,100939.63
2023-05-16T17:42:19.852Z,100939.88
2023-05-16T17:44:48.869Z,100940.47
2023-05-16T17:47:16.605Z,100946.25
2023-05-16T17:49:44.530Z,100946.06
2023-05-16T17:52:12.055Z,100937.38
2023-05-16T17:54:39.587Z,100942.94
2023-05-16T17:57:07.132Z,100942.56
2023-05-16T17:59:34.811Z,100943.16
2023-05-16T18:02:04.135Z,100946.66
2023-05-16T18:04:31.804Z,100954.91
2023-05-16T18:07:00.211Z,100962.34
2023-05-16T18:09:28.622Z,100966.88
2023-05-16T18:11:56.364Z,100963.97
2023-05-16T18:14:24.020Z,100962.97
2023-05-16T18:16:51.541Z,100971.38
2023-05-16T18:19:20.555Z,100982.09
2023-05-16T18:21:48.141Z,100975.88
2023-05-16T18:24:16.414Z,100990.69
2023-05-16T18:26:46.425Z,100986.97
2023-05-16T18:29:14.060Z,100994.38
2023-05-16T18:31:42.360Z,100997.00
2023-05-16T18:34:10.307Z,100998.19
2023-05-16T18:36:39.260Z,100994.84
2023-05-16T18:39:07.079Z,100995.50
2023-05-16T18:41:34.688Z,100997.47
2023-05-16T18:44:02.257Z,101002.81
2023-05-16T18:46:29.845Z,100995.81
2023-05-16T18:48:58.335Z,101009.34
2023-05-16T18:51:26.249Z,101005.09
2023-05-16T18:53:55.178Z,101010.50
2023-05-16T18:56:22.801Z,101020.75
2023-05-16T18:58:50.803Z,101018.22
2023-05-16T19:01:22.036Z,101034.72
2023-05-16T19:03:49.703Z,101031.69
2023-05-16T19:06:17.340Z,101032.09
2023-05-16T19:08:47.908Z,101047.25
2023-05-16T19:11:17.814Z,101041.41
2023-05-16T19:13:45.637Z,101047.91
2023-05-16T19:16:13.408Z,101051.78
2023-05-16T19:18:41.110Z,101049.28
2023-05-16T19:21:10.006Z,101056.63
2023-05-16T19:23:37.573Z,101067.69
2023-05-16T19:26:09.994Z,101068.81
2023-05-16T19:28:40.626Z,101071.28
2023-05-16T19:31:08.323Z,101073.88
2023-05-16T19:33:36.064Z,101080.63
2023-05-16T19:36:05.791Z,101081.00
2023-05-16T19:38:33.348Z,101087.13
2023-05-16T19:41:01.135Z,101089.13
2023-05-16T19:43:29.477Z,101092.09
2023-05-16T19:45:58.374Z,101092.66
2023-05-16T19:48:26.462Z,101097.25
2023-05-16T19:50:54.008Z,101100.69
2023-05-16T19:53:21.690Z,101106.59
2023-05-16T19:55:49.508Z,101108.34
2023-05-16T19:58:17.312Z,101108.44
2023-05-16T20:00:45.290Z,101116.81
2023-05-16T20:03:14.469Z,101119.31
2023-05-16T20:05:42.138Z,101130.47
2023-05-16T20:08:11.177Z,101129.53
2023-05-16T20:10:39.010Z,101123.38
2023-05-16T20:13:06.585Z,101132.31
2023-05-16T20:15:34.107Z,101141.91
2023-05-16T20:18:01.963Z,101134.97
2023-05-16T20:20:31.026Z,101141.31
2023-05-16T20:22:58.608Z,101139.59
2023-05-16T20:25:26.666Z,101143.44
2023-05-16T20:27:54.582Z,101155.78
2023-05-16T20:30:22.333Z,101160.47
2023-05-16T20:32:49.881Z,101161.38
2023-05-16T20:35:17.470Z,101161.19
2023-05-16T20:37:46.316Z,101168.56
2023-05-16T20:40:13.920Z,101168.56
2023-05-16T20:42:41.585Z,101165.31
2023-05-16T20:45:12.738Z,101172.41
2023-05-16T20:47:40.315Z,101179.78
2023-05-16T20:50:08.969Z,101179.69
2023-05-16T20:52:39.200Z,101180.03
2023-05-16T20:55:08.846Z,101185.38
2023-05-16T20:57:36.396Z,101189.78
2023-05-16T21:00:04.773Z,101189.13
2023-05-16T21:02:32.505Z,101196.81
2023-05-16T21:05:14.406Z,101191.03
2023-05-16T21:07:47.633Z,101203.97
2023-05-16T21:10:16.835Z,101199.56
2023-05-16T21:12:44.530Z,101199.75
2023-05-16T21:15:12.279Z,101206.91
2023-05-16T21:17:41.456Z,101202.28
2023-05-16T21:20:09.988Z,101206.56
2023-05-16T21:22:37.577Z,101207.28
2023-05-16T21:25:05.682Z,101206.69
2023-05-16T21:27:34.794Z,101212.69
2023-05-16T21:30:02.780Z,101205.22
2023-05-16T21:32:32.893Z,101226.38
2023-05-16T21:35:04.132Z,101216.06
2023-05-16T21:37:31.799Z,101220.09
2023-05-16T21:39:59.315Z,101224.59
2023-05-16T21:42:26.896Z,101225.47
2023-05-16T21:44:55.737Z,101225.94
2023-05-16T21:47:23.374Z,101231.13
2023-05-16T21:49:51.011Z,101228.81
2023-05-16T21:52:18.578Z,101230.50
2023-05-16T21:54:51.396Z,101225.88
2023-05-16T21:57:19.575Z,101232.34
2023-05-16T21:59:50.254Z,101228.53
2023-05-16T22:02:22.795Z,101234.16
2023-05-16T22:04:54.957Z,101232.84
2023-05-16T22:07:24.024Z,101236.38
2023-05-16T22:09:53.558Z,101237.56
2023-05-16T22:12:21.239Z,101235.59
2023-05-16T22:14:48.998Z,101230.25
2023-05-16T22:17:17.157Z,101219.59
2023-05-16T22:19:47.084Z,101234.28
2023-05-16T22:22:14.756Z,101232.66
2023-05-16T22:24:42.359Z,101234.13
2023-05-16T22:27:09.932Z,101234.97
2023-05-16T22:29:38.881Z,101241.97
2023-05-16T22:32:07.832Z,101232.81
2023-05-16T22:34:35.423Z,101242.19
2023-05-16T22:37:04.380Z,101241.00
2023-05-16T22:39:31.891Z,101231.00
2023-05-16T22:42:00.915Z,101234.88
2023-05-16T22:44:28.516Z,101234.53
2023-05-16T22:46:56.078Z,101237.19
2023-05-16T22:49:23.666Z,101242.69
2023-05-16T22:51:51.198Z,101237.53
2023-05-16T22:54:22.489Z,101237.22
2023-05-16T22:56:50.054Z,101241.06
2023-05-16T22:59:17.562Z,101248.22
2023-05-16T23:01:51.732Z,101239.06
2023-05-16T23:04:19.523Z,101251.41
2023-05-16T23:06:47.298Z,101250.06
2023-05-16T23:09:15.165Z,101246.25
2023-05-16T23:11:44.023Z,101257.88
2023-05-16T23:14:11.771Z,101250.41
2023-05-16T23:16:39.346Z,101258.72
2023-05-16T23:19:09.250Z,101258.09
2023-05-16T23:21:37.517Z,101258.09
2023-05-16T23:24:05.243Z,101257.75
2023-05-16T23:26:32.865Z,101256.22
2023-05-16T23:29:01.833Z,101263.72
2023-05-16T23:31:29.357Z,101261.38
2023-05-16T23:33:57.151Z,101262.06
2023-05-16T23:36:24.720Z,101262.56
2023-05-16T23:38:52.328Z,101260.44
2023-05-16T23:41:19.858Z,101259.75
2023-05-16T23:43:51.149Z,101264.38
2023-05-16T23:46:20.036Z,101270.56
2023-05-16T23:48:47.621Z,101266.72
2023-05-16T23:51:15.232Z,101271.72
2023-05-16T23:53:42.802Z,101271.72
2023-05-16T23:56:10.360Z,101273.72
2023-05-16T23:58:37.855Z,101263.09
